sensor_id;sensor_type;location;lat;lon;timestamp;pressure;altitude;pressure_sealevel;temperature
7830;BMP180;3960;51.86894000;5.39848000;2022-07-05T00:00:59;102161.47;;;15.42
7830;BMP180;3960;51.86894000;5.39848000;2022-07-05T00:03:24;102160.38;;;15.36
7830;BMP180;3960;51.86894000;5.39848000;2022-07-05T00:05:50;102168.97;;;15.34
7830;BMP180;3960;51.86894000;5.39848000;2022-07-05T00:08:15;102161.22;;;15.30
7830;BMP180;3960;51.86894000;5.39848000;2022-07-05T00:10:41;102166.28;;;15.31
7830;BMP180;3960;51.86894000;5.39848000;2022-07-05T00:13:07;102172.94;;;15.27
7830;BMP180;3960;51.86894000;5.39848000;2022-07-05T00:15:33;102169.88;;;15.21
7830;BMP180;3960;51.86894000;5.39848000;2022-07-05T00:17:58;102169.50;;;15.16
7830;BMP180;3960;51.86894000;5.39848000;2022-07-05T00:20:24;102174.25;;;15.08
7830;BMP180;3960;51.86894000;5.39848000;2022-07-05T00:22:49;102168.41;;;15.06
7830;BMP180;3960;51.86894000;5.39848000;2022-07-05T00:25:15;102163.03;;;14.99
7830;BMP180;3960;51.86894000;5.39848000;2022-07-05T00:27:40;102168.88;;;15.01
7830;BMP180;3960;51.86894000;5.39848000;2022-07-05T00:30:07;102159.56;;;14.95
7830;BMP180;3960;51.86894000;5.39848000;2022-07-05T00:32:33;102171.59;;;15.01
7830;BMP180;3960;51.86894000;5.39848000;2022-07-05T00:34:58;102173.94;;;14.99
7830;BMP180;3960;51.86894000;5.39848000;2022-07-05T00:37:23;102165.00;;;14.95
7830;BMP180;3960;51.86894000;5.39848000;2022-07-05T00:39:49;102169.34;;;14.93
7830;BMP180;3960;51.86894000;5.39848000;2022-07-05T00:42:14;102164.28;;;14.88
7830;BMP180;3960;51.86894000;5.39848000;2022-07-05T00:44:40;102162.72;;;14.87
7830;BMP180;3960;51.86894000;5.39848000;2022-07-05T00:47:08;102170.94;;;14.83
7830;BMP180;3960;51.86894000;5.39848000;2022-07-05T00:49:34;102169.81;;;14.77
7830;BMP180;3960;51.86894000;5.39848000;2022-07-05T00:52:01;102169.09;;;14.70
7830;BMP180;3960;51.86894000;5.39848000;2022-07-05T00:54:27;102158.22;;;14.63
7830;BMP180;3960;51.86894000;5.39848000;2022-07-05T00:56:53;102177.69;;;14.68
7830;BMP180;3960;51.86894000;5.39848000;2022-07-05T00:59:19;102173.41;;;14.64
7830;BMP180;3960;51.86894000;5.39848000;2022-07-05T01:01:44;102164.91;;;14.55
7830;BMP180;3960;51.86894000;5.39848000;2022-07-05T01:04:11;102168.72;;;14.64
7830;BMP180;3960;51.86894000;5.39848000;2022-07-05T01:06:38;102172.28;;;14.58
7830;BMP180;3960;51.86894000;5.39848000;2022-07-05T01:09:03;102169.19;;;14.56
7830;BMP180;3960;51.86894000;5.39848000;2022-07-05T01:11:29;102171.16;;;14.56
7830;BMP180;3960;51.86894000;5.39848000;2022-07-05T01:13:55;102168.44;;;14.52
7830;BMP180;3960;51.86894000;5.39848000;2022-07-05T01:16:21;102168.47;;;14.49
7830;BMP180;3960;51.86894000;5.39848000;2022-07-05T01:18:47;102163.03;;;14.45
7830;BMP180;3960;51.86894000;5.39848000;2022-07-05T01:21:13;102163.38;;;14.51
7830;BMP180;3960;51.86894000;5.39848000;2022-07-05T01:23:39;102158.31;;;14.49
7830;BMP180;3960;51.86894000;5.39848000;2022-07-05T01:26:06;102164.56;;;14.50
7830;BMP180;3960;51.86894000;5.39848000;2022-07-05T01:28:31;102168.06;;;14.47
7830;BMP180;3960;51.86894000;5.39848000;2022-07-05T01:30:57;102161.88;;;14.43
7830;BMP180;3960;51.86894000;5.39848000;2022-07-05T01:33:29;102160.75;;;14.37
7830;BMP180;3960;51.86894000;5.39848000;2022-07-05T01:35:55;102164.22;;;14.37
7830;BMP180;3960;51.86894000;5.39848000;2022-07-05T01:38:21;102166.97;;;14.34
7830;BMP180;3960;51.86894000;5.39848000;2022-07-05T01:40:46;102168.97;;;14.30
7830;BMP180;3960;51.86894000;5.39848000;2022-07-05T01:43:15;102160.03;;;14.22
7830;BMP180;3960;51.86894000;5.39848000;2022-07-05T01:45:40;102167.78;;;14.34
7830;BMP180;3960;51.86894000;5.39848000;2022-07-05T01:48:12;102151.47;;;14.27
7830;BMP180;3960;51.86894000;5.39848000;2022-07-05T01:51:07;102180.59;;;14.37
7830;BMP180;3960;51.86894000;5.39848000;2022-07-05T01:53:35;102169.34;;;14.28
7830;BMP180;3960;51.86894000;5.39848000;2022-07-05T01:56:03;102162.75;;;14.22
7830;BMP180;3960;51.86894000;5.39848000;2022-07-05T01:58:30;102175.56;;;14.32
7830;BMP180;3960;51.86894000;5.39848000;2022-07-05T02:00:56;102170.53;;;14.27
7830;BMP180;3960;51.86894000;5.39848000;2022-07-05T02:03:23;102176.72;;;14.31
7830;BMP180;3960;51.86894000;5.39848000;2022-07-05T02:05:48;102163.88;;;14.28
7830;BMP180;3960;51.86894000;5.39848000;2022-07-05T02:08:15;102169.34;;;14.28
7830;BMP180;3960;51.86894000;5.39848000;2022-07-05T02:10:42;102165.09;;;14.27
7830;BMP180;3960;51.86894000;5.39848000;2022-07-05T02:13:08;102153.44;;;14.16
7830;BMP180;3960;51.86894000;5.39848000;2022-07-05T02:15:36;102172.47;;;14.27
7830;BMP180;3960;51.86894000;5.39848000;2022-07-05T02:18:03;102171.31;;;14.24
7830;BMP180;3960;51.86894000;5.39848000;2022-07-05T02:20:30;102172.06;;;14.25
7830;BMP180;3960;51.86894000;5.39848000;2022-07-05T02:22:56;102163.16;;;14.21
7830;BMP180;3960;51.86894000;5.39848000;2022-07-05T02:25:22;102166.59;;;14.28
7830;BMP180;3960;51.86894000;5.39848000;2022-07-05T02:27:47;102169.31;;;14.32
7830;BMP180;3960;51.86894000;5.39848000;2022-07-05T02:30:13;102153.78;;;14.29
7830;BMP180;3960;51.86894000;5.39848000;2022-07-05T02:32:39;102164.22;;;14.41
7830;BMP180;3960;51.86894000;5.39848000;2022-07-05T02:35:05;102169.66;;;14.44
7830;BMP180;3960;51.86894000;5.39848000;2022-07-05T02:37:31;102172.34;;;14.48
7830;BMP180;3960;51.86894000;5.39848000;2022-07-05T02:39:57;102167.66;;;14.52
7830;BMP180;3960;51.86894000;5.39848000;2022-07-05T02:42:22;102171.53;;;14.54
7830;BMP180;3960;51.86894000;5.39848000;2022-07-05T02:44:47;102173.88;;;14.56
7830;BMP180;3960;51.86894000;5.39848000;2022-07-05T02:47:13;102171.13;;;14.59
7830;BMP180;3960;51.86894000;5.39848000;2022-07-05T02:49:38;102168.75;;;14.61
7830;BMP180;3960;51.86894000;5.39848000;2022-07-05T02:52:04;102174.59;;;14.63
7830;BMP180;3960;51.86894000;5.39848000;2022-07-05T02:54:29;102178.47;;;14.65
7830;BMP180;3960;51.86894000;5.39848000;2022-07-05T02:56:54;102162.53;;;14.60
7830;BMP180;3960;51.86894000;5.39848000;2022-07-05T02:59:20;102183.13;;;14.68
7830;BMP180;3960;51.86894000;5.39848000;2022-07-05T03:01:45;102189.75;;;14.71
7830;BMP180;3960;51.86894000;5.39848000;2022-07-05T03:04:10;102183.13;;;14.72
7830;BMP180;3960;51.86894000;5.39848000;2022-07-05T03:06:36;102186.59;;;14.72
7830;BMP180;3960;51.86894000;5.39848000;2022-07-05T03:09:02;102187.41;;;14.73
7830;BMP180;3960;51.86894000;5.39848000;2022-07-05T03:11:27;102190.13;;;14.73
7830;BMP180;3960;51.86894000;5.39848000;2022-07-05T03:13:52;102181.19;;;14.65
7830;BMP180;3960;51.86894000;5.39848000;2022-07-05T03:16:18;102182.34;;;14.68
7830;BMP180;3960;51.86894000;5.39848000;2022-07-05T03:18:43;102159.44;;;14.55
7830;BMP180;3960;51.86894000;5.39848000;2022-07-05T03:21:08;102190.47;;;14.75
7830;BMP180;3960;51.86894000;5.39848000;2022-07-05T03:23:34;102192.41;;;14.78
7830;BMP180;3960;51.86894000;5.39848000;2022-07-05T03:25:59;102202.13;;;14.82
7830;BMP180;3960;51.86894000;5.39848000;2022-07-05T03:28:24;102199.00;;;14.84
7830;BMP180;3960;51.86894000;5.39848000;2022-07-05T03:30:50;102199.34;;;14.89
7830;BMP180;3960;51.86894000;5.39848000;2022-07-05T03:33:15;102197.81;;;14.88
7830;BMP180;3960;51.86894000;5.39848000;2022-07-05T03:35:40;102206.31;;;14.94
7830;BMP180;3960;51.86894000;5.39848000;2022-07-05T03:38:06;102202.06;;;14.93
7830;BMP180;3960;51.86894000;5.39848000;2022-07-05T03:40:31;102208.66;;;14.95
7830;BMP180;3960;51.86894000;5.39848000;2022-07-05T03:42:56;102207.09;;;14.98
7830;BMP180;3960;51.86894000;5.39848000;2022-07-05T03:45:22;102207.41;;;15.03
7830;BMP180;3960;51.86894000;5.39848000;2022-07-05T03:47:47;102200.03;;;15.04
7830;BMP180;3960;51.86894000;5.39848000;2022-07-05T03:50:12;102187.56;;;14.99
7830;BMP180;3960;51.86894000;5.39848000;2022-07-05T03:52:38;102202.34;;;15.05
7830;BMP180;3960;51.86894000;5.39848000;2022-07-05T03:55:03;102195.31;;;15.08
7830;BMP180;3960;51.86894000;5.39848000;2022-07-05T03:57:29;102201.13;;;15.13
7830;BMP180;3960;51.86894000;5.39848000;2022-07-05T03:59:54;102193.75;;;15.07
7830;BMP180;3960;51.86894000;5.39848000;2022-07-05T04:02:20;102214.72;;;15.17
7830;BMP180;3960;51.86894000;5.39848000;2022-07-05T04:04:45;102206.94;;;15.19
7830;BMP180;3960;51.86894000;5.39848000;2022-07-05T04:07:10;102208.06;;;15.21
7830;BMP180;3960;51.86894000;5.39848000;2022-07-05T04:09:36;102206.53;;;15.24
7830;BMP180;3960;51.86894000;5.39848000;2022-07-05T04:12:01;102206.09;;;15.25
7830;BMP180;3960;51.86894000;5.39848000;2022-07-05T04:14:27;102217.41;;;15.27
7830;BMP180;3960;51.86894000;5.39848000;2022-07-05T04:16:52;102214.69;;;15.27
7830;BMP180;3960;51.86894000;5.39848000;2022-07-05T04:19:17;102205.66;;;15.30
7830;BMP180;3960;51.86894000;5.39848000;2022-07-05T04:21:43;102208.03;;;15.28
7830;BMP180;3960;51.86894000;5.39848000;2022-07-05T04:24:08;102216.63;;;15.27
7830;BMP180;3960;51.86894000;5.39848000;2022-07-05T04:26:33;102214.28;;;15.25
7830;BMP180;3960;51.86894000;5.39848000;2022-07-05T04:28:58;102208.44;;;15.23
7830;BMP180;3960;51.86894000;5.39848000;2022-07-05T04:31:24;102214.69;;;15.27
7830;BMP180;3960;51.86894000;5.39848000;2022-07-05T04:33:49;102223.59;;;15.31
7830;BMP180;3960;51.86894000;5.39848000;2022-07-05T04:36:15;102216.56;;;15.33
7830;BMP180;3960;51.86894000;5.39848000;2022-07-05T04:38:40;102215.00;;;15.32
7830;BMP180;3960;51.86894000;5.39848000;2022-07-05T04:41:06;102220.03;;;15.41
7830;BMP180;3960;51.86894000;5.39848000;2022-07-05T04:43:31;102220.38;;;15.43
7830;BMP180;3960;51.86894000;5.39848000;2022-07-05T04:45:57;102219.59;;;15.42
7830;BMP180;3960;51.86894000;5.39848000;2022-07-05T04:48:22;102212.59;;;15.41
7830;BMP180;3960;51.86894000;5.39848000;2022-07-05T04:50:48;102211.78;;;15.44
7830;BMP180;3960;51.86894000;5.39848000;2022-07-05T04:53:13;102218.69;;;15.56
7830;BMP180;3960;51.86894000;5.39848000;2022-07-05T04:55:38;102232.28;;;15.63
7830;BMP180;3960;51.86894000;5.39848000;2022-07-05T04:58:03;102229.88;;;15.68
7830;BMP180;3960;51.86894000;5.39848000;2022-07-05T05:00:29;102232.56;;;15.75
7830;BMP180;3960;51.86894000;5.39848000;2022-07-05T05:02:54;102225.50;;;15.78
7830;BMP180;3960;51.86894000;5.39848000;2022-07-05T05:05:19;102235.19;;;15.86
7830;BMP180;3960;51.86894000;5.39848000;2022-07-05T05:07:45;102226.59;;;15.84
7830;BMP180;3960;51.86894000;5.39848000;2022-07-05T05:10:11;102239.75;;;15.96
7830;BMP180;3960;51.86894000;5.39848000;2022-07-05T05:12:37;102243.56;;;16.02
7830;BMP180;3960;51.86894000;5.39848000;2022-07-05T05:15:03;102243.50;;;16.08
7830;BMP180;3960;51.86894000;5.39848000;2022-07-05T05:17:38;102238.78;;;16.12
7830;BMP180;3960;51.86894000;5.39848000;2022-07-05T05:20:06;102236.00;;;16.16
7830;BMP180;3960;51.86894000;5.39848000;2022-07-05T05:22:31;102241.78;;;16.21
7830;BMP180;3960;51.86894000;5.39848000;2022-07-05T05:24:56;102231.19;;;16.27
7830;BMP180;3960;51.86894000;5.39848000;2022-07-05T05:27:22;102240.47;;;16.36
7830;BMP180;3960;51.86894000;5.39848000;2022-07-05T05:29:47;102238.00;;;16.45
7830;BMP180;3960;51.86894000;5.39848000;2022-07-05T05:32:12;102239.88;;;16.52
7830;BMP180;3960;51.86894000;5.39848000;2022-07-05T05:34:37;102235.00;;;16.63
7830;BMP180;3960;51.86894000;5.39848000;2022-07-05T05:37:03;102237.69;;;16.66
7830;BMP180;3960;51.86894000;5.39848000;2022-07-05T05:39:28;102247.31;;;16.78
7830;BMP180;3960;51.86894000;5.39848000;2022-07-05T05:41:53;102236.00;;;16.76
7830;BMP180;3960;51.86894000;5.39848000;2022-07-05T05:44:19;102243.75;;;17.07
7830;BMP180;3960;51.86894000;5.39848000;2022-07-05T05:46:44;102258.09;;;17.41
7830;BMP180;3960;51.86894000;5.39848000;2022-07-05T05:49:09;102241.84;;;17.53
7830;BMP180;3960;51.86894000;5.39848000;2022-07-05T05:51:34;102256.19;;;18.03
7830;BMP180;3960;51.86894000;5.39848000;2022-07-05T05:54:00;102244.94;;;18.36
7830;BMP180;3960;51.86894000;5.39848000;2022-07-05T05:56:25;102255.72;;;18.82
7830;BMP180;3960;51.86894000;5.39848000;2022-07-05T05:58:52;102247.78;;;19.19
7830;BMP180;3960;51.86894000;5.39848000;2022-07-05T06:01:17;102250.53;;;19.51
7830;BMP180;3960;51.86894000;5.39848000;2022-07-05T06:03:42;102262.25;;;19.83
7830;BMP180;3960;51.86894000;5.39848000;2022-07-05T06:06:08;102249.28;;;20.12
7830;BMP180;3960;51.86894000;5.39848000;2022-07-05T06:08:33;102255.88;;;20.55
7830;BMP180;3960;51.86894000;5.39848000;2022-07-05T06:10:58;102267.63;;;20.84
7830;BMP180;3960;51.86894000;5.39848000;2022-07-05T06:13:23;102263.88;;;21.15
7830;BMP180;3960;51.86894000;5.39848000;2022-07-05T06:15:49;102275.03;;;21.45
7830;BMP180;3960;51.86894000;5.39848000;2022-07-05T06:18:14;102270.41;;;21.67
7830;BMP180;3960;51.86894000;5.39848000;2022-07-05T06:20:40;102277.38;;;21.93
7830;BMP180;3960;51.86894000;5.39848000;2022-07-05T06:23:06;102261.28;;;22.13
7830;BMP180;3960;51.86894000;5.39848000;2022-07-05T06:25:32;102274.22;;;22.46
7830;BMP180;3960;51.86894000;5.39848000;2022-07-05T06:28:00;102275.78;;;22.77
7830;BMP180;3960;51.86894000;5.39848000;2022-07-05T06:30:28;102268.25;;;23.08
7830;BMP180;3960;51.86894000;5.39848000;2022-07-05T06:32:54;102276.03;;;23.31
7830;BMP180;3960;51.86894000;5.39848000;2022-07-05T06:35:20;102263.63;;;23.53
7830;BMP180;3960;51.86894000;5.39848000;2022-07-05T06:37:47;102272.72;;;23.81
7830;BMP180;3960;51.86894000;5.39848000;2022-07-05T06:40:16;102273.50;;;23.99
7830;BMP180;3960;51.86894000;5.39848000;2022-07-05T06:42:42;102279.34;;;24.19
7830;BMP180;3960;51.86894000;5.39848000;2022-07-05T06:45:08;102263.03;;;24.21
7830;BMP180;3960;51.86894000;5.39848000;2022-07-05T06:47:34;102275.94;;;24.42
7830;BMP180;3960;51.86894000;5.39848000;2022-07-05T06:50:00;102275.41;;;24.70
7830;BMP180;3960;51.86894000;5.39848000;2022-07-05T06:52:28;102269.41;;;24.63
7830;BMP180;3960;51.86894000;5.39848000;2022-07-05T06:54:53;102274.22;;;24.53
7830;BMP180;3960;51.86894000;5.39848000;2022-07-05T06:57:20;102274.72;;;24.07
7830;BMP180;3960;51.86894000;5.39848000;2022-07-05T06:59:45;102280.09;;;23.66
7830;BMP180;3960;51.86894000;5.39848000;2022-07-05T07:02:11;102269.06;;;23.09
7830;BMP180;3960;51.86894000;5.39848000;2022-07-05T07:04:36;102288.97;;;23.52
7830;BMP180;3960;51.86894000;5.39848000;2022-07-05T07:07:01;102285.03;;;24.07
7830;BMP180;3960;51.86894000;5.39848000;2022-07-05T07:09:27;102284.53;;;24.44
7830;BMP180;3960;51.86894000;5.39848000;2022-07-05T07:11:52;102282.25;;;24.93
7830;BMP180;3960;51.86894000;5.39848000;2022-07-05T07:14:17;102286.03;;;25.36
7830;BMP180;3960;51.86894000;5.39848000;2022-07-05T07:16:43;102282.59;;;25.65
7830;BMP180;3960;51.86894000;5.39848000;2022-07-05T07:19:09;102270.53;;;25.77
7830;BMP180;3960;51.86894000;5.39848000;2022-07-05T07:21:34;102285.16;;;25.54
7830;BMP180;3960;51.86894000;5.39848000;2022-07-05T07:24:00;102286.81;;;25.04
7830;BMP180;3960;51.86894000;5.39848000;2022-07-05T07:26:25;102286.59;;;24.76
7830;BMP180;3960;51.86894000;5.39848000;2022-07-05T07:28:51;102263.00;;;24.39
7830;BMP180;3960;51.86894000;5.39848000;2022-07-05T07:31:16;102295.31;;;24.24
7830;BMP180;3960;51.86894000;5.39848000;2022-07-05T07:33:41;102289.78;;;23.97
7830;BMP180;3960;51.86894000;5.39848000;2022-07-05T07:36:07;102297.03;;;23.77
7830;BMP180;3960;51.86894000;5.39848000;2022-07-05T07:38:32;102302.44;;;23.41
7830;BMP180;3960;51.86894000;5.39848000;2022-07-05T07:40:57;102291.34;;;23.14
7830;BMP180;3960;51.86894000;5.39848000;2022-07-05T07:43:23;102290.78;;;22.98
7830;BMP180;3960;51.86894000;5.39848000;2022-07-05T07:45:48;102288.56;;;22.84
7830;BMP180;3960;51.86894000;5.39848000;2022-07-05T07:48:13;102278.41;;;22.72
7830;BMP180;3960;51.86894000;5.39848000;2022-07-05T07:50:39;102284.13;;;22.86
7830;BMP180;3960;51.86894000;5.39848000;2022-07-05T07:53:04;102290.06;;;22.76
7830;BMP180;3960;51.86894000;5.39848000;2022-07-05T07:55:29;102292.34;;;22.69
7830;BMP180;3960;51.86894000;5.39848000;2022-07-05T07:57:55;102285.28;;;22.68
7830;BMP180;3960;51.86894000;5.39848000;2022-07-05T08:00:20;102286.84;;;22.77
7830;BMP180;3960;51.86894000;5.39848000;2022-07-05T08:02:46;102286.38;;;22.79
7830;BMP180;3960;51.86894000;5.39848000;2022-07-05T08:05:11;102293.09;;;22.99
7830;BMP180;3960;51.86894000;5.39848000;2022-07-05T08:07:37;102282.06;;;23.56
7830;BMP180;3960;51.86894000;5.39848000;2022-07-05T08:10:04;102285.34;;;24.09
7830;BMP180;3960;51.86894000;5.39848000;2022-07-05T08:12:29;102294.38;;;24.45
7830;BMP180;3960;51.86894000;5.39848000;2022-07-05T08:14:55;102289.53;;;25.13
7830;BMP180;3960;51.86894000;5.39848000;2022-07-05T08:17:20;102287.09;;;25.39
7830;BMP180;3960;51.86894000;5.39848000;2022-07-05T08:19:46;102297.31;;;25.33
7830;BMP180;3960;51.86894000;5.39848000;2022-07-05T08:22:31;102292.69;;;24.98
7830;BMP180;3960;51.86894000;5.39848000;2022-07-05T08:24:56;102291.81;;;24.83
7830;BMP180;3960;51.86894000;5.39848000;2022-07-05T08:27:22;102288.53;;;24.93
7830;BMP180;3960;51.86894000;5.39848000;2022-07-05T08:29:47;102290.69;;;24.39
7830;BMP180;3960;51.86894000;5.39848000;2022-07-05T08:32:12;102286.88;;;23.83
7830;BMP180;3960;51.86894000;5.39848000;2022-07-05T08:34:38;102292.59;;;23.31
7830;BMP180;3960;51.86894000;5.39848000;2022-07-05T08:37:04;102284.94;;;22.96
7830;BMP180;3960;51.86894000;5.39848000;2022-07-05T08:39:30;102295.59;;;22.76
7830;BMP180;3960;51.86894000;5.39848000;2022-07-05T08:41:57;102281.75;;;22.46
7830;BMP180;3960;51.86894000;5.39848000;2022-07-05T08:44:27;102293.97;;;22.36
7830;BMP180;3960;51.86894000;5.39848000;2022-07-05T08:46:54;102299.06;;;22.25
7830;BMP180;3960;51.86894000;5.39848000;2022-07-05T08:49:23;102299.44;;;22.14
7830;BMP180;3960;51.86894000;5.39848000;2022-07-05T08:51:50;102297.06;;;22.04
7830;BMP180;3960;51.86894000;5.39848000;2022-07-05T08:54:16;102292.34;;;22.04
7830;BMP180;3960;51.86894000;5.39848000;2022-07-05T08:56:42;102287.28;;;22.03
7830;BMP180;3960;51.86894000;5.39848000;2022-07-05T08:59:08;102284.69;;;22.08
7830;BMP180;3960;51.86894000;5.39848000;2022-07-05T09:01:34;102282.47;;;22.16
7830;BMP180;3960;51.86894000;5.39848000;2022-07-05T09:04:03;102291.25;;;22.23
7830;BMP180;3960;51.86894000;5.39848000;2022-07-05T09:06:32;102293.69;;;22.21
7830;BMP180;3960;51.86894000;5.39848000;2022-07-05T09:08:58;102288.81;;;22.47
7830;BMP180;3960;51.86894000;5.39848000;2022-07-05T09:11:35;102305.63;;;22.91
7830;BMP180;3960;51.86894000;5.39848000;2022-07-05T09:14:02;102301.19;;;23.24
7830;BMP180;3960;51.86894000;5.39848000;2022-07-05T09:16:28;102309.47;;;23.90
7830;BMP180;3960;51.86894000;5.39848000;2022-07-05T09:18:53;102310.78;;;24.75
7830;BMP180;3960;51.86894000;5.39848000;2022-07-05T09:21:26;102308.06;;;25.40
7830;BMP180;3960;51.86894000;5.39848000;2022-07-05T09:24:07;102320.63;;;25.96
7830;BMP180;3960;51.86894000;5.39848000;2022-07-05T09:29:11;102292.44;;;26.12
7830;BMP180;3960;51.86894000;5.39848000;2022-07-05T09:31:39;102309.06;;;25.98
7830;BMP180;3960;51.86894000;5.39848000;2022-07-05T09:36:56;102306.66;;;25.12
7830;BMP180;3960;51.86894000;5.39848000;2022-07-05T09:44:42;102315.34;;;24.01
7830;BMP180;3960;51.86894000;5.39848000;2022-07-05T09:47:10;102307.78;;;23.84
7830;BMP180;3960;51.86894000;5.39848000;2022-07-05T09:49:38;102301.00;;;23.76
7830;BMP180;3960;51.86894000;5.39848000;2022-07-05T09:52:03;102306.63;;;24.71
7830;BMP180;3960;51.86894000;5.39848000;2022-07-05T09:54:29;102294.41;;;25.27
7830;BMP180;3960;51.86894000;5.39848000;2022-07-05T09:56:54;102313.50;;;25.81
7830;BMP180;3960;51.86894000;5.39848000;2022-07-05T09:59:20;102312.47;;;26.31
7830;BMP180;3960;51.86894000;5.39848000;2022-07-05T10:01:46;102304.16;;;25.93
7830;BMP180;3960;51.86894000;5.39848000;2022-07-05T10:04:11;102310.53;;;25.61
7830;BMP180;3960;51.86894000;5.39848000;2022-07-05T10:06:36;102305.47;;;25.36
7830;BMP180;3960;51.86894000;5.39848000;2022-07-05T10:09:02;102312.59;;;25.52
7830;BMP180;3960;51.86894000;5.39848000;2022-07-05T10:11:27;102311.47;;;25.35
7830;BMP180;3960;51.86894000;5.39848000;2022-07-05T10:13:54;102314.69;;;25.10
7830;BMP180;3960;51.86894000;5.39848000;2022-07-05T10:16:21;102315.19;;;24.91
7830;BMP180;3960;51.86894000;5.39848000;2022-07-05T10:18:50;102310.78;;;24.75
7830;BMP180;3960;51.86894000;5.39848000;2022-07-05T10:21:17;102320.47;;;24.80
7830;BMP180;3960;51.86894000;5.39848000;2022-07-05T10:23:45;102315.19;;;24.91
7830;BMP180;3960;51.86894000;5.39848000;2022-07-05T10:26:14;102315.00;;;25.35
7830;BMP180;3960;51.86894000;5.39848000;2022-07-05T10:28:40;102302.59;;;25.78
7830;BMP180;3960;51.86894000;5.39848000;2022-07-05T10:31:08;102307.22;;;25.48
7830;BMP180;3960;51.86894000;5.39848000;2022-07-05T10:33:35;102312.66;;;25.19
7830;BMP180;3960;51.86894000;5.39848000;2022-07-05T10:36:00;102301.91;;;25.12
7830;BMP180;3960;51.86894000;5.39848000;2022-07-05T10:38:25;102292.88;;;25.26
7830;BMP180;3960;51.86894000;5.39848000;2022-07-05T10:40:54;102294.25;;;25.54
7830;BMP180;3960;51.86894000;5.39848000;2022-07-05T10:43:24;102303.69;;;25.71
7830;BMP180;3960;51.86894000;5.39848000;2022-07-05T10:45:51;102300.41;;;26.48
7830;BMP180;3960;51.86894000;5.39848000;2022-07-05T10:50:47;102302.50;;;26.82
7830;BMP180;3960;51.86894000;5.39848000;2022-07-05T10:53:17;102297.03;;;27.02
7830;BMP180;3960;51.86894000;5.39848000;2022-07-05T11:00:47;102301.22;;;28.06
7830;BMP180;3960;51.86894000;5.39848000;2022-07-05T11:03:33;102308.28;;;27.81
7830;BMP180;3960;51.86894000;5.39848000;2022-07-05T11:06:00;102292.97;;;27.51
7830;BMP180;3960;51.86894000;5.39848000;2022-07-05T11:08:25;102297.53;;;26.86
7830;BMP180;3960;51.86894000;5.39848000;2022-07-05T11:13:37;102294.84;;;26.34
7830;BMP180;3960;51.86894000;5.39848000;2022-07-05T11:16:23;102303.41;;;25.92
7830;BMP180;3960;51.86894000;5.39848000;2022-07-05T11:18:50;102311.22;;;25.80
7830;BMP180;3960;51.86894000;5.39848000;2022-07-05T11:21:22;102313.97;;;26.17
7830;BMP180;3960;51.86894000;5.39848000;2022-07-05T11:23:48;102310.84;;;26.82
7830;BMP180;3960;51.86894000;5.39848000;2022-07-05T11:26:16;102302.66;;;27.22
7830;BMP180;3960;51.86894000;5.39848000;2022-07-05T11:28:46;102305.44;;;27.76
7830;BMP180;3960;51.86894000;5.39848000;2022-07-05T11:31:13;102301.50;;;28.07
7830;BMP180;3960;51.86894000;5.39848000;2022-07-05T11:34:12;102296.34;;;28.20
7830;BMP180;3960;51.86894000;5.39848000;2022-07-05T11:36:37;102291.88;;;28.28
7830;BMP180;3960;51.86894000;5.39848000;2022-07-05T11:39:16;102294.44;;;28.32
7830;BMP180;3960;51.86894000;5.39848000;2022-07-05T11:41:44;102293.91;;;28.59
7830;BMP180;3960;51.86894000;5.39848000;2022-07-05T11:44:10;102297.00;;;28.66
7830;BMP180;3960;51.86894000;5.39848000;2022-07-05T11:46:36;102293.22;;;27.93
7830;BMP180;3960;51.86894000;5.39848000;2022-07-05T11:49:02;102292.84;;;27.26
7830;BMP180;3960;51.86894000;5.39848000;2022-07-05T11:51:27;102290.34;;;27.08
7830;BMP180;3960;51.86894000;5.39848000;2022-07-05T11:53:53;102290.53;;;27.59
7830;BMP180;3960;51.86894000;5.39848000;2022-07-05T11:56:18;102286.34;;;27.69
7830;BMP180;3960;51.86894000;5.39848000;2022-07-05T11:58:43;102283.91;;;26.88
7830;BMP180;3960;51.86894000;5.39848000;2022-07-05T12:01:09;102290.16;;;26.25
7830;BMP180;3960;51.86894000;5.39848000;2022-07-05T12:03:34;102285.44;;;26.17
7830;BMP180;3960;51.86894000;5.39848000;2022-07-05T12:06:13;102298.66;;;26.07
7830;BMP180;3960;51.86894000;5.39848000;2022-07-05T12:08:38;102298.34;;;26.05
7830;BMP180;3960;51.86894000;5.39848000;2022-07-05T12:11:04;102285.28;;;26.35
7830;BMP180;3960;51.86894000;5.39848000;2022-07-05T12:13:51;102291.22;;;26.42
7830;BMP180;3960;51.86894000;5.39848000;2022-07-05T12:16:16;102292.25;;;27.02
7830;BMP180;3960;51.86894000;5.39848000;2022-07-05T12:18:46;102288.09;;;27.12
7830;BMP180;3960;51.86894000;5.39848000;2022-07-05T12:21:12;102293.38;;;27.44
7830;BMP180;3960;51.86894000;5.39848000;2022-07-05T12:23:41;102291.94;;;27.15
7830;BMP180;3960;51.86894000;5.39848000;2022-07-05T12:26:06;102293.88;;;26.80
7830;BMP180;3960;51.86894000;5.39848000;2022-07-05T12:28:32;102288.81;;;26.35
7830;BMP180;3960;51.86894000;5.39848000;2022-07-05T12:30:57;102289.13;;;26.52
7830;BMP180;3960;51.86894000;5.39848000;2022-07-05T12:33:23;102288.84;;;26.64
7830;BMP180;3960;51.86894000;5.39848000;2022-07-05T12:35:48;102297.41;;;27.09
7830;BMP180;3960;51.86894000;5.39848000;2022-07-05T12:38:17;102288.25;;;27.23
7830;BMP180;3960;51.86894000;5.39848000;2022-07-05T12:40:56;102293.91;;;26.65
7830;BMP180;3960;51.86894000;5.39848000;2022-07-05T12:43:22;102296.09;;;26.33
7830;BMP180;3960;51.86894000;5.39848000;2022-07-05T12:46:07;102311.63;;;26.68
7830;BMP180;3960;51.86894000;5.39848000;2022-07-05T12:48:37;102309.50;;;27.06